sensor_id;sensor_type;location;lat;lon;timestamp;temperature;humidity
2955;DHT22;1487;51.470;6.938;2023-02-19T00:01:33;10.00;99.90
2955;DHT22;1487;51.470;6.938;2023-02-19T00:04:02;10.00;99.90
2955;DHT22;1487;51.470;6.938;2023-02-19T00:06:31;10.00;99.90
2955;DHT22;1487;51.470;6.938;2023-02-19T00:08:58;10.00;99.90
2955;DHT22;1487;51.470;6.938;2023-02-19T00:11:27;10.00;99.90
2955;DHT22;1487;51.470;6.938;2023-02-19T00:13:57;10.00;99.90
2955;DHT22;1487;51.470;6.938;2023-02-19T00:16:26;10.00;99.90
2955;DHT22;1487;51.470;6.938;2023-02-19T00:18:54;10.00;99.90
2955;DHT22;1487;51.470;6.938;2023-02-19T00:21:22;9.90;99.90
2955;DHT22;1487;51.470;6.938;2023-02-19T00:23:50;9.90;99.90
2955;DHT22;1487;51.470;6.938;2023-02-19T00:26:17;9.90;99.90
2955;DHT22;1487;51.470;6.938;2023-02-19T00:28:44;9.90;99.90
2955;DHT22;1487;51.470;6.938;2023-02-19T00:31:16;9.90;99.90
2955;DHT22;1487;51.470;6.938;2023-02-19T00:33:44;9.90;99.90
2955;DHT22;1487;51.470;6.938;2023-02-19T00:36:11;9.90;99.90
2955;DHT22;1487;51.470;6.938;2023-02-19T00:38:39;9.90;99.90
2955;DHT22;1487;51.470;6.938;2023-02-19T00:41:06;9.90;99.90
2955;DHT22;1487;51.470;6.938;2023-02-19T00:43:45;9.80;99.90
2955;DHT22;1487;51.470;6.938;2023-02-19T00:46:14;9.80;99.90
2955;DHT22;1487;51.470;6.938;2023-02-19T00:48:40;9.80;99.90
2955;DHT22;1487;51.470;6.938;2023-02-19T00:51:07;9.80;99.90
2955;DHT22;1487;51.470;6.938;2023-02-19T00:53:34;9.80;99.90
2955;DHT22;1487;51.470;6.938;2023-02-19T00:56:01;9.80;99.90
2955;DHT22;1487;51.470;6.938;2023-02-19T00:58:28;9.80;99.90
2955;DHT22;1487;51.470;6.938;2023-02-19T01:00:55;9.80;99.90
2955;DHT22;1487;51.470;6.938;2023-02-19T01:03:23;9.80;99.90
2955;DHT22;1487;51.470;6.938;2023-02-19T01:05:51;9.80;99.90
2955;DHT22;1487;51.470;6.938;2023-02-19T01:08:19;9.90;99.90
2955;DHT22;1487;51.470;6.938;2023-02-19T01:10:46;9.80;99.90
2955;DHT22;1487;51.470;6.938;2023-02-19T01:13:13;9.80;99.90
2955;DHT22;1487;51.470;6.938;2023-02-19T01:15:40;9.80;99.90
2955;DHT22;1487;51.470;6.938;2023-02-19T01:18:07;9.80;99.90
2955;DHT22;1487;51.470;6.938;2023-02-19T01:20:37;9.90;99.90
2955;DHT22;1487;51.470;6.938;2023-02-19T01:23:05;9.80;99.90
2955;DHT22;1487;51.470;6.938;2023-02-19T01:25:31;9.80;99.90
2955;DHT22;1487;51.470;6.938;2023-02-19T01:27:58;9.80;99.90
2955;DHT22;1487;51.470;6.938;2023-02-19T01:30:25;9.80;99.90
2955;DHT22;1487;51.470;6.938;2023-02-19T01:32:52;9.90;99.90
2955;DHT22;1487;51.470;6.938;2023-02-19T01:35:18;9.80;99.90
2955;DHT22;1487;51.470;6.938;2023-02-19T01:37:47;9.80;99.90
2955;DHT22;1487;51.470;6.938;2023-02-19T01:40:13;9.80;99.90
2955;DHT22;1487;51.470;6.938;2023-02-19T01:42:41;9.90;99.90
2955;DHT22;1487;51.470;6.938;2023-02-19T01:45:20;9.90;99.90
2955;DHT22;1487;51.470;6.938;2023-02-19T01:47:51;9.90;99.90
2955;DHT22;1487;51.470;6.938;2023-02-19T01:50:20;9.80;99.90
2955;DHT22;1487;51.470;6.938;2023-02-19T01:52:48;9.80;99.90
2955;DHT22;1487;51.470;6.938;2023-02-19T01:55:15;9.80;99.90
2955;DHT22;1487;51.470;6.938;2023-02-19T01:57:45;9.80;99.90
2955;DHT22;1487;51.470;6.938;2023-02-19T02:00:15;9.80;99.90
2955;DHT22;1487;51.470;6.938;2023-02-19T02:02:48;9.90;99.90
2955;DHT22;1487;51.470;6.938;2023-02-19T02:05:22;9.90;99.90
2955;DHT22;1487;51.470;6.938;2023-02-19T02:07:51;9.90;99.90
2955;DHT22;1487;51.470;6.938;2023-02-19T02:10:36;9.80;99.90
2955;DHT22;1487;51.470;6.938;2023-02-19T02:13:03;9.80;99.90
2955;DHT22;1487;51.470;6.938;2023-02-19T02:15:36;9.80;99.90
2955;DHT22;1487;51.470;6.938;2023-02-19T02:18:08;9.80;99.90
2955;DHT22;1487;51.470;6.938;2023-02-19T02:20:52;9.80;99.90
2955;DHT22;1487;51.470;6.938;2023-02-19T02:23:39;9.80;99.90
2955;DHT22;1487;51.470;6.938;2023-02-19T02:26:15;9.80;99.90
2955;DHT22;1487;51.470;6.938;2023-02-19T02:29:30;9.80;99.90
2955;DHT22;1487;51.470;6.938;2023-02-19T02:32:03;9.80;99.90
2955;DHT22;1487;51.470;6.938;2023-02-19T02:34:36;9.80;99.90
2955;DHT22;1487;51.470;6.938;2023-02-19T02:37:06;9.80;99.90
2955;DHT22;1487;51.470;6.938;2023-02-19T02:39:35;9.80;99.90
2955;DHT22;1487;51.470;6.938;2023-02-19T02:42:03;9.80;99.90
2955;DHT22;1487;51.470;6.938;2023-02-19T02:44:48;9.80;99.90
2955;DHT22;1487;51.470;6.938;2023-02-19T02:47:31;9.70;99.90
2955;DHT22;1487;51.470;6.938;2023-02-19T02:50:11;9.70;99.90
2955;DHT22;1487;51.470;6.938;2023-02-19T02:52:40;9.70;99.90
2955;DHT22;1487;51.470;6.938;2023-02-19T02:55:29;9.70;99.90
2955;DHT22;1487;51.470;6.938;2023-02-19T02:57:56;9.70;99.90
2955;DHT22;1487;51.470;6.938;2023-02-19T03:00:24;9.80;99.90
2955;DHT22;1487;51.470;6.938;2023-02-19T03:03:13;9.70;99.90
2955;DHT22;1487;51.470;6.938;2023-02-19T03:05:43;9.70;99.90
2955;DHT22;1487;51.470;6.938;2023-02-19T03:08:24;9.70;99.90
2955;DHT22;1487;51.470;6.938;2023-02-19T03:10:56;9.70;99.90
2955;DHT22;1487;51.470;6.938;2023-02-19T03:13:27;9.70;99.90
2955;DHT22;1487;51.470;6.938;2023-02-19T03:16:16;9.70;99.90
2955;DHT22;1487;51.470;6.938;2023-02-19T03:19:10;9.70;99.90
2955;DHT22;1487;51.470;6.938;2023-02-19T03:21:51;9.70;99.90
2955;DHT22;1487;51.470;6.938;2023-02-19T03:24:22;9.70;99.90
2955;DHT22;1487;51.470;6.938;2023-02-19T03:27:09;9.70;99.90
2955;DHT22;1487;51.470;6.938;2023-02-19T03:29:40;9.70;99.90
2955;DHT22;1487;51.470;6.938;2023-02-19T03:32:11;9.70;99.90
2955;DHT22;1487;51.470;6.938;2023-02-19T03:34:45;9.70;99.90
2955;DHT22;1487;51.470;6.938;2023-02-19T03:37:17;9.70;99.90
2955;DHT22;1487;51.470;6.938;2023-02-19T03:39:49;9.70;99.90
2955;DHT22;1487;51.470;6.938;2023-02-19T03:42:34;9.70;99.90
2955;DHT22;1487;51.470;6.938;2023-02-19T03:45:21;9.70;99.90
2955;DHT22;1487;51.470;6.938;2023-02-19T03:47:51;9.70;99.90
2955;DHT22;1487;51.470;6.938;2023-02-19T03:50:26;9.60;99.90
2955;DHT22;1487;51.470;6.938;2023-02-19T03:53:01;9.60;99.90
2955;DHT22;1487;51.470;6.938;2023-02-19T03:55:35;9.60;99.90
2955;DHT22;1487;51.470;6.938;2023-02-19T03:58:08;9.60;99.90
2955;DHT22;1487;51.470;6.938;2023-02-19T04:00:41;9.60;99.90
2955;DHT22;1487;51.470;6.938;2023-02-19T04:03:16;9.60;99.90
2955;DHT22;1487;51.470;6.938;2023-02-19T04:05:47;9.50;99.90
2955;DHT22;1487;51.470;6.938;2023-02-19T04:08:18;9.50;99.90
2955;DHT22;1487;51.470;6.938;2023-02-19T04:10:46;9.50;99.90
2955;DHT22;1487;51.470;6.938;2023-02-19T04:13:17;9.50;99.90
2955;DHT22;1487;51.470;6.938;2023-02-19T04:15:46;9.50;99.90
2955;DHT22;1487;51.470;6.938;2023-02-19T04:18:17;9.50;99.90
2955;DHT22;1487;51.470;6.938;2023-02-19T04:20:46;9.50;99.90
2955;DHT22;1487;51.470;6.938;2023-02-19T04:23:16;9.50;99.90
2955;DHT22;1487;51.470;6.938;2023-02-19T04:25:48;9.50;99.90
2955;DHT22;1487;51.470;6.938;2023-02-19T04:28:17;9.50;99.90
2955;DHT22;1487;51.470;6.938;2023-02-19T04:30:44;9.50;99.90
2955;DHT22;1487;51.470;6.938;2023-02-19T04:33:11;9.50;99.90
2955;DHT22;1487;51.470;6.938;2023-02-19T04:35:38;9.50;99.90
2955;DHT22;1487;51.470;6.938;2023-02-19T04:38:06;9.50;99.90
2955;DHT22;1487;51.470;6.938;2023-02-19T04:40:33;9.50;99.90
2955;DHT22;1487;51.470;6.938;2023-02-19T04:43:00;9.50;99.90
2955;DHT22;1487;51.470;6.938;2023-02-19T04:45:26;9.50;99.90
2955;DHT22;1487;51.470;6.938;2023-02-19T04:47:53;9.50;99.90
2955;DHT22;1487;51.470;6.938;2023-02-19T04:50:20;9.40;99.90
2955;DHT22;1487;51.470;6.938;2023-02-19T04:52:47;9.40;99.90
2955;DHT22;1487;51.470;6.938;2023-02-19T04:55:16;9.40;99.90
2955;DHT22;1487;51.470;6.938;2023-02-19T04:57:43;9.40;99.90
2955;DHT22;1487;51.470;6.938;2023-02-19T05:00:10;9.40;99.90
2955;DHT22;1487;51.470;6.938;2023-02-19T05:02:37;9.40;99.90
2955;DHT22;1487;51.470;6.938;2023-02-19T05:05:04;9.40;99.90
2955;DHT22;1487;51.470;6.938;2023-02-19T05:07:31;9.40;99.90
2955;DHT22;1487;51.470;6.938;2023-02-19T05:09:58;9.40;99.90
2955;DHT22;1487;51.470;6.938;2023-02-19T05:12:28;9.40;99.90
2955;DHT22;1487;51.470;6.938;2023-02-19T05:14:55;9.40;99.90
2955;DHT22;1487;51.470;6.938;2023-02-19T05:17:22;9.40;99.90
2955;DHT22;1487;51.470;6.938;2023-02-19T05:19:49;9.40;99.90
2955;DHT22;1487;51.470;6.938;2023-02-19T05:22:16;9.40;99.90
2955;DHT22;1487;51.470;6.938;2023-02-19T05:24:42;9.40;99.90
2955;DHT22;1487;51.470;6.938;2023-02-19T05:27:09;9.40;99.90
2955;DHT22;1487;51.470;6.938;2023-02-19T05:29:37;9.40;99.90
2955;DHT22;1487;51.470;6.938;2023-02-19T05:32:04;9.40;99.90
2955;DHT22;1487;51.470;6.938;2023-02-19T05:34:31;9.40;99.90
2955;DHT22;1487;51.470;6.938;2023-02-19T05:36:58;9.30;99.90
2955;DHT22;1487;51.470;6.938;2023-02-19T05:39:25;9.30;99.90
2955;DHT22;1487;51.470;6.938;2023-02-19T05:41:51;9.40;99.90
2955;DHT22;1487;51.470;6.938;2023-02-19T05:44:18;9.40;99.90
2955;DHT22;1487;51.470;6.938;2023-02-19T05:46:46;9.40;99.90
2955;DHT22;1487;51.470;6.938;2023-02-19T05:49:13;9.40;99.90
2955;DHT22;1487;51.470;6.938;2023-02-19T05:51:40;9.40;99.90
2955;DHT22;1487;51.470;6.938;2023-02-19T05:54:07;9.30;99.90
2955;DHT22;1487;51.470;6.938;2023-02-19T05:56:35;9.30;99.90
2955;DHT22;1487;51.470;6.938;2023-02-19T05:59:05;9.30;99.90
2955;DHT22;1487;51.470;6.938;2023-02-19T06:01:33;9.30;99.90
2955;DHT22;1487;51.470;6.938;2023-02-19T06:04:01;9.30;99.90
2955;DHT22;1487;51.470;6.938;2023-02-19T06:06:28;9.20;99.90
2955;DHT22;1487;51.470;6.938;2023-02-19T06:08:55;9.20;99.90
2955;DHT22;1487;51.470;6.938;2023-02-19T06:11:22;9.20;99.90
2955;DHT22;1487;51.470;6.938;2023-02-19T06:13:49;9.20;99.90
2955;DHT22;1487;51.470;6.938;2023-02-19T06:16:16;9.20;99.90
2955;DHT22;1487;51.470;6.938;2023-02-19T06:18:44;9.20;99.90
2955;DHT22;1487;51.470;6.938;2023-02-19T06:21:13;9.20;99.90
2955;DHT22;1487;51.470;6.938;2023-02-19T06:23:40;9.20;99.90
2955;DHT22;1487;51.470;6.938;2023-02-19T06:26:09;9.20;99.90
2955;DHT22;1487;51.470;6.938;2023-02-19T06:28:36;9.20;99.90
2955;DHT22;1487;51.470;6.938;2023-02-19T06:31:03;9.20;99.90
2955;DHT22;1487;51.470;6.938;2023-02-19T06:33:30;9.20;99.90
2955;DHT22;1487;51.470;6.938;2023-02-19T06:35:57;9.20;99.90
2955;DHT22;1487;51.470;6.938;2023-02-19T06:38:27;9.10;99.90
2955;DHT22;1487;51.470;6.938;2023-02-19T06:40:54;9.10;99.90
2955;DHT22;1487;51.470;6.938;2023-02-19T06:43:25;9.10;99.90
2955;DHT22;1487;51.470;6.938;2023-02-19T06:45:52;9.10;99.90
2955;DHT22;1487;51.470;6.938;2023-02-19T06:48:19;9.10;99.90
2955;DHT22;1487;51.470;6.938;2023-02-19T06:50:45;9.10;99.90
2955;DHT22;1487;51.470;6.938;2023-02-19T06:53:12;9.10;99.90
2955;DHT22;1487;51.470;6.938;2023-02-19T06:55:40;9.10;99.90
2955;DHT22;1487;51.470;6.938;2023-02-19T06:58:07;9.10;99.90
2955;DHT22;1487;51.470;6.938;2023-02-19T07:00:34;9.00;99.90
2955;DHT22;1487;51.470;6.938;2023-02-19T07:03:01;9.10;99.90
2955;DHT22;1487;51.470;6.938;2023-02-19T07:05:28;9.10;99.90
2955;DHT22;1487;51.470;6.938;2023-02-19T07:07:54;9.00;99.90
2955;DHT22;1487;51.470;6.938;2023-02-19T07:10:21;9.00;99.90
2955;DHT22;1487;51.470;6.938;2023-02-19T07:12:49;9.00;99.90
2955;DHT22;1487;51.470;6.938;2023-02-19T07:15:16;9.00;99.90
2955;DHT22;1487;51.470;6.938;2023-02-19T07:17:43;9.00;99.90
2955;DHT22;1487;51.470;6.938;2023-02-19T07:20:10;9.00;99.90
2955;DHT22;1487;51.470;6.938;2023-02-19T07:22:37;9.00;99.90
2955;DHT22;1487;51.470;6.938;2023-02-19T07:25:04;9.00;99.90
2955;DHT22;1487;51.470;6.938;2023-02-19T07:27:31;9.00;99.90
2955;DHT22;1487;51.470;6.938;2023-02-19T07:29:59;9.10;99.90
2955;DHT22;1487;51.470;6.938;2023-02-19T07:32:27;9.10;99.90
2955;DHT22;1487;51.470;6.938;2023-02-19T07:34:53;9.10;99.90
2955;DHT22;1487;51.470;6.938;2023-02-19T07:37:20;9.10;99.90
2955;DHT22;1487;51.470;6.938;2023-02-19T07:39:48;9.10;99.90
2955;DHT22;1487;51.470;6.938;2023-02-19T07:42:15;9.10;99.90
2955;DHT22;1487;51.470;6.938;2023-02-19T07:44:41;9.10;99.90
2955;DHT22;1487;51.470;6.938;2023-02-19T07:47:10;9.10;99.90
2955;DHT22;1487;51.470;6.938;2023-02-19T07:49:36;9.10;99.90
2955;DHT22;1487;51.470;6.938;2023-02-19T07:52:03;9.10;99.90
2955;DHT22;1487;51.470;6.938;2023-02-19T07:54:30;9.10;99.90
2955;DHT22;1487;51.470;6.938;2023-02-19T07:56:57;9.20;99.90
2955;DHT22;1487;51.470;6.938;2023-02-19T07:59:24;9.20;99.90
2955;DHT22;1487;51.470;6.938;2023-02-19T08:01:51;9.20;99.90
2955;DHT22;1487;51.470;6.938;2023-02-19T08:04:36;9.20;99.90
2955;DHT22;1487;51.470;6.938;2023-02-19T08:07:03;9.30;99.90
2955;DHT22;1487;51.470;6.938;2023-02-19T08:09:30;9.30;99.90
2955;DHT22;1487;51.470;6.938;2023-02-19T08:11:57;9.30;99.90
2955;DHT22;1487;51.470;6.938;2023-02-19T08:14:41;9.40;99.90
2955;DHT22;1487;51.470;6.938;2023-02-19T08:17:08;9.30;99.90
2955;DHT22;1487;51.470;6.938;2023-02-19T08:19:37;9.30;99.90
2955;DHT22;1487;51.470;6.938;2023-02-19T08:22:03;9.30;99.90
2955;DHT22;1487;51.470;6.938;2023-02-19T08:24:30;9.30;99.90
2955;DHT22;1487;51.470;6.938;2023-02-19T08:26:58;9.40;99.90
2955;DHT22;1487;51.470;6.938;2023-02-19T08:29:25;9.40;99.90
2955;DHT22;1487;51.470;6.938;2023-02-19T08:31:52;9.50;99.90
2955;DHT22;1487;51.470;6.938;2023-02-19T08:34:19;9.50;99.90
2955;DHT22;1487;51.470;6.938;2023-02-19T08:36:47;9.60;99.90
2955;DHT22;1487;51.470;6.938;2023-02-19T08:39:14;9.70;99.90
2955;DHT22;1487;51.470;6.938;2023-02-19T08:41:41;9.60;99.90
2955;DHT22;1487;51.470;6.938;2023-02-19T08:44:08;9.70;99.90
2955;DHT22;1487;51.470;6.938;2023-02-19T08:46:34;9.70;99.90
2955;DHT22;1487;51.470;6.938;2023-02-19T08:49:01;9.60;99.90
2955;DHT22;1487;51.470;6.938;2023-02-19T08:51:28;9.60;99.90
2955;DHT22;1487;51.470;6.938;2023-02-19T08:53:56;9.60;99.90
2955;DHT22;1487;51.470;6.938;2023-02-19T08:56:23;9.70;99.90
2955;DHT22;1487;51.470;6.938;2023-02-19T08:58:50;9.70;99.90
2955;DHT22;1487;51.470;6.938;2023-02-19T09:01:16;9.80;99.90
2955;DHT22;1487;51.470;6.938;2023-02-19T09:03:45;9.90;99.90
2955;DHT22;1487;51.470;6.938;2023-02-19T09:06:15;9.90;99.90
2955;DHT22;1487;51.470;6.938;2023-02-19T09:08:42;9.90;99.90
2955;DHT22;1487;51.470;6.938;2023-02-19T09:11:10;10.00;99.90
2955;DHT22;1487;51.470;6.938;2023-02-19T09:13:37;10.10;99.90
2955;DHT22;1487;51.470;6.938;2023-02-19T09:16:04;10.20;99.90
2955;DHT22;1487;51.470;6.938;2023-02-19T09:18:31;10.20;99.90
2955;DHT22;1487;51.470;6.938;2023-02-19T09:21:00;10.10;99.90
2955;DHT22;1487;51.470;6.938;2023-02-19T09:23:28;10.10;99.90
2955;DHT22;1487;51.470;6.938;2023-02-19T09:25:58;10.10;99.90
2955;DHT22;1487;51.470;6.938;2023-02-19T09:28:29;10.10;99.90
2955;DHT22;1487;51.470;6.938;2023-02-19T09:30:55;10.10;99.90
2955;DHT22;1487;51.470;6.938;2023-02-19T09:33:22;10.00;99.90
2955;DHT22;1487;51.470;6.938;2023-02-19T09:35:49;10.10;99.90
2955;DHT22;1487;51.470;6.938;2023-02-19T09:38:16;10.10;99.90
2955;DHT22;1487;51.470;6.938;2023-02-19T09:40:43;10.00;99.90
2955;DHT22;1487;51.470;6.938;2023-02-19T09:43:14;10.00;99.90
2955;DHT22;1487;51.470;6.938;2023-02-19T09:45:43;9.80;99.90
2955;DHT22;1487;51.470;6.938;2023-02-19T09:48:11;9.80;99.90
2955;DHT22;1487;51.470;6.938;2023-02-19T09:50:41;9.80;99.90
2955;DHT22;1487;51.470;6.938;2023-02-19T09:53:13;9.80;99.90
2955;DHT22;1487;51.470;6.938;2023-02-19T09:55:41;9.90;99.90
2955;DHT22;1487;51.470;6.938;2023-02-19T09:58:19;10.00;99.90
2955;DHT22;1487;51.470;6.938;2023-02-19T10:00:51;10.00;99.90
2955;DHT22;1487;51.470;6.938;2023-02-19T10:03:22;10.30;99.90
2955;DHT22;1487;51.470;6.938;2023-02-19T10:05:57;10.30;99.90
2955;DHT22;1487;51.470;6.938;2023-02-19T10:08:24;10.50;99.90
2955;DHT22;1487;51.470;6.938;2023-02-19T10:10:52;10.60;99.90
2955;DHT22;1487;51.470;6.938;2023-02-19T10:13:20;10.70;99.90
2955;DHT22;1487;51.470;6.938;2023-02-19T10:15:51;10.80;99.90
2955;DHT22;1487;51.470;6.938;2023-02-19T10:18:21;10.90;99.90
2955;DHT22;1487;51.470;6.938;2023-02-19T10:20:49;11.00;99.90
2955;DHT22;1487;51.470;6.938;2023-02-19T10:23:17;11.10;99.90
2955;DHT22;1487;51.470;6.938;2023-02-19T10:25:46;11.20;99.90
2955;DHT22;1487;51.470;6.938;2023-02-19T10:28:16;11.00;99.90
2955;DHT22;1487;51.470;6.938;2023-02-19T10:30:44;11.00;99.90
2955;DHT22;1487;51.470;6.938;2023-02-19T10:33:16;11.00;99.90
2955;DHT22;1487;51.470;6.938;2023-02-19T10:35:55;10.90;99.90
2955;DHT22;1487;51.470;6.938;2023-02-19T10:38:25;10.90;99.90
2955;DHT22;1487;51.470;6.938;2023-02-19T10:40:59;10.90;99.90
2955;DHT22;1487;51.470;6.938;2023-02-19T10:43:29;10.90;99.90
2955;DHT22;1487;51.470;6.938;2023-02-19T10:46:02;10.80;99.90
2955;DHT22;1487;51.470;6.938;2023-02-19T10:48:33;10.80;99.90
2955;DHT22;1487;51.470;6.938;2023-02-19T10:51:04;10.90;99.90
2955;DHT22;1487;51.470;6.938;2023-02-19T10:53:41;11.30;99.90
2955;DHT22;1487;51.470;6.938;2023-02-19T10:56:12;11.60;99.90
2955;DHT22;1487;51.470;6.938;2023-02-19T10:58:39;11.80;99.90
2955;DHT22;1487;51.470;6.938;2023-02-19T11:01:12;11.90;99.90
2955;DHT22;1487;51.470;6.938;2023-02-19T11:03:41;12.00;99.90
2955;DHT22;1487;51.470;6.938;2023-02-19T11:06:09;12.30;99.90
2955;DHT22;1487;51.470;6.938;2023-02-19T11:08:46;12.50;99.90
2955;DHT22;1487;51.470;6.938;2023-02-19T11:11:25;12.50;99.90
2955;DHT22;1487;51.470;6.938;2023-02-19T11:13:55;12.20;99.90
2955;DHT22;1487;51.470;6.938;2023-02-19T11:16:23;12.20;99.90
2955;DHT22;1487;51.470;6.938;2023-02-19T11:19:03;12.30;99.90
2955;DHT22;1487;51.470;6.938;2023-02-19T11:21:30;12.40;99.90
2955;DHT22;1487;51.470;6.938;2023-02-19T11:23:58;12.50;99.90
2955;DHT22;1487;51.470;6.938;2023-02-19T11:26:30;12.30;99.90
2955;DHT22;1487;51.470;6.938;2023-02-19T11:29:00;12.50;99.90
2955;DHT22;1487;51.470;6.938;2023-02-19T11:31:29;12.40;99.90
2955;DHT22;1487;51.470;6.938;2023-02-19T11:33:58;12.20;99.90
2955;DHT22;1487;51.470;6.938;2023-02-19T11:36:34;12.10;99.90
2955;DHT22;1487;51.470;6.938;2023-02-19T11:39:18;12.00;99.90
2955;DHT22;1487;51.470;6.938;2023-02-19T11:42:07;11.70;99.90
2955;DHT22;1487;51.470;6.938;2023-02-19T11:44:48;11.80;99.90
2955;DHT22;1487;51.470;6.938;2023-02-19T11:47:38;11.90;99.90
2955;DHT22;1487;51.470;6.938;2023-02-19T11:50:15;11.90;99.90
2955;DHT22;1487;51.470;6.938;2023-02-19T11:52:51;12.00;99.90
2955;DHT22;1487;51.470;6.938;2023-02-19T11:55:33;12.20;99.90
2955;DHT22;1487;51.470;6.938;2023-02-19T11:58:13;12.30;99.90
2955;DHT22;1487;51.470;6.938;2023-02-19T12:00:51;12.30;99.90
2955;DHT22;1487;51.470;6.938;2023-02-19T12:03:40;12.00;99.90
2955;DHT22;1487;51.470;6.938;2023-02-19T12:06:18;11.70;99.90
2955;DHT22;1487;51.470;6.938;2023-02-19T12:09:20;11.40;99.90
2955;DHT22;1487;51.470;6.938;2023-02-19T12:12:14;11.30;99.90
2955;DHT22;1487;51.470;6.938;2023-02-19T12:14:56;11.20;99.90
2955;DHT22;1487;51.470;6.938;2023-02-19T12:17:46;11.40;99.90
2955;DHT22;1487;51.470;6.938;2023-02-19T12:20:20;11.50;99.90
2955;DHT22;1487;51.470;6.938;2023-02-19T12:22:59;11.60;99.90
2955;DHT22;1487;51.470;6.938;2023-02-19T12:25:49;11.70;99.90
2955;DHT22;1487;51.470;6.938;2023-02-19T12:28:35;11.70;99.90
2955;DHT22;1487;51.470;6.938;2023-02-19T12:31:23;11.40;99.90
2955;DHT22;1487;51.470;6.938;2023-02-19T12:34:14;11.30;99.90
2955;DHT22;1487;51.470;6.938;2023-02-19T12:36:51;11.20;99.90
2955;DHT22;1487;51.470;6.938;2023-02-19T12:39:28;11.10;99.90
2955;DHT22;1487;51.470;6.938;2023-02-19T12:42:05;11.10;99.90
2955;DHT22;1487;51.470;6.938;2023-02-19T12:44:39;11.30;99.90
2955;DHT22;1487;51.470;6.938;2023-02-19T12:47:13;11.40;99.90
2955;DHT22;1487;51.470;6.938;2023-02-19T12:49:44;11.60;99.90
2955;DHT22;1487;51.470;6.938;2023-02-19T12:52:17;11.90;99.90
2955;DHT22;1487;51.470;6.938;2023-02-19T12:54:48;12.10;99.90
2955;DHT22;1487;51.470;6.938;2023-02-19T12:57:20;12.10;99.90
2955;DHT22;1487;51.470;6.938;2023-02-19T12:59:51;12.20;99.90
2955;DHT22;1487;51.470;6.938;2023-02-19T13:02:22;12.10;99.90
2955;DHT22;1487;51.470;6.938;2023-02-19T13:04:57;12.20;99.90
2955;DHT22;1487;51.470;6.938;2023-02-19T13:07:29;12.10;99.90
2955;DHT22;1487;51.470;6.938;2023-02-19T13:10:03;12.00;99.90
2955;DHT22;1487;51.470;6.938;2023-02-19T13:12:34;11.80;99.90
2955;DHT22;1487;51.470;6.938;2023-02-19T13:15:08;11.80;99.90
2955;DHT22;1487;51.470;6.938;2023-02-19T13:17:42;11.90;99.90
2955;DHT22;1487;51.470;6.938;2023-02-19T13:20:16;11.70;99.90
2955;DHT22;1487;51.470;6.938;2023-02-19T13:22:48;11.50;99.90
2955;DHT22;1487;51.470;6.938;2023-02-19T13:25:46;11.40;99.90
2955;DHT22;1487;51.470;6.938;2023-02-19T13:28:39;11.30;99.90
2955;DHT22;1487;51.470;6.938;2023-02-19T13:31:33;11.00;99.90
2955;DHT22;1487;51.470;6.938;2023-02-19T13:34:12;10.90;99.90
2955;DHT22;1487;51.470;6.938;2023-02-19T13:36:43;10.80;99.90
2955;DHT22;1487;51.470;6.938;2023-02-19T13:39:12;10.70;99.90
2955;DHT22;1487;51.470;6.938;2023-02-19T13:41:41;10.70;99.90
2955;DHT22;1487;51.470;6.938;2023-02-19T13:44:18;10.60;99.90
2955;DHT22;1487;51.470;6.938;2023-02-19T13:46:46;10.60;99.90
2955;DHT22;1487;51.470;6.938;2023-02-19T13:49:47;10.60;99.90
2955;DHT22;1487;51.470;6.938;2023-02-19T13:52:36;10.60;99.90
2955;DHT22;1487;51.470;6.938;2023-02-19T13:58:37;10.60;99.90
2955;DHT22;1487;51.470;6.938;2023-02-19T14:01:08;10.50;99.90
2955;DHT22;1487;51.470;6.938;2023-02-19T14:03:44;10.40;99.90
2955;DHT22;1487;51.470;6.938;2023-02-19T14:06:12;10.20;99.90
2955;DHT22;1487;51.470;6.938;2023-02-19T14:08:49;10.10;99.90
2955;DHT22;1487;51.470;6.938;2023-02-19T14:11:17;10.00;99.90
2955;DHT22;1487;51.470;6.938;2023-02-19T14:13:59;9.90;99.90
2955;DHT22;1487;51.470;6.938;2023-02-19T14:16:51;9.80;99.90
2955;DHT22;1487;51.470;6.938;2023-02-19T14:19:43;9.70;99.90
2955;DHT22;1487;51.470;6.938;2023-02-19T14:22:49;9.70;99.90
2955;DHT22;1487;51.470;6.938;2023-02-19T14:28:35;9.60;99.90
2955;DHT22;1487;51.470;6.938;2023-02-19T14:31:18;9.60;99.90
2955;DHT22;1487;51.470;6.938;2023-02-19T14:33:49;9.60;99.90
2955;DHT22;1487;51.470;6.938;2023-02-19T14:36:25;9.60;99.90
2955;DHT22;1487;51.470;6.938;2023-02-19T14:38:56;9.60;99.90
2955;DHT22;1487;51.470;6.938;2023-02-19T14:41:25;9.60;99.90
2955;DHT22;1487;51.470;6.938;2023-02-19T14:43:55;9.70;99.90
2955;DHT22;1487;51.470;6.938;2023-02-19T14:46:28;9.70;99.90
2955;DHT22;1487;51.470;6.938;2023-02-19T14:49:01;9.70;99.90
2955;DHT22;1487;51.470;6.938;2023-02-19T14:51:31;9.60;99.90
2955;DHT22;1487;51.470;6.938;2023-02-19T14:54:02;9.60;99.90
2955;DHT22;1487;51.470;6.938;2023-02-19T14:56:32;9.60;99.90
2955;DHT22;1487;51.470;6.938;2023-02-19T14:59:22;9.60;99.90
2955;DHT22;1487;51.470;6.938;2023-02-19T15:01:54;9.60;99.90
2955;DHT22;1487;51.470;6.938;2023-02-19T15:04:23;9.60;99.90
2955;DHT22;1487;51.470;6.938;2023-02-19T15:06:51;9.60;99.90
2955;DHT22;1487;51.470;6.938;2023-02-19T15:09:24;9.70;99.90
2955;DHT22;1487;51.470;6.938;2023-02-19T15:11:53;9.70;99.90
2955;DHT22;1487;51.470;6.938;2023-02-19T15:14:20;9.60;99.90
2955;DHT22;1487;51.470;6.938;2023-02-19T15:16:50;9.60;99.90
2955;DHT22;1487;51.470;6.938;2023-02-19T15:19:23;9.60;99.90
2955;DHT22;1487;51.470;6.938;2023-02-19T15:21:50;9.60;99.90
2955;DHT22;1487;51.470;6.938;2023-02-19T15:24:18;9.50;99.90
2955;DHT22;1487;51.470;6.938;2023-02-19T15:26:47;9.60;99.90
2955;DHT22;1487;51.470;6.938;2023-02-19T15:29:16;9.60;99.90
2955;DHT22;1487;51.470;6.938;2023-02-19T15:31:45;9.60;99.90
2955;DHT22;1487;51.470;6.938;2023-02-19T15:34:16;9.60;99.90
2955;DHT22;1487;51.470;6.938;2023-02-19T15:36:45;9.60;99.90
2955;DHT22;1487;51.470;6.938;2023-02-19T15:39:19;9.60;99.90
2955;DHT22;1487;51.470;6.938;2023-02-19T15:41:51;9.50;99.90
2955;DHT22;1487;51.470;6.938;2023-02-19T15:44:28;9.50;99.90
2955;DHT22;1487;51.470;6.938;2023-02-19T15:46:58;9.40;99.90
2955;DHT22;1487;51.470;6.938;2023-02-19T15:49:29;9.40;99.90
2955;DHT22;1487;51.470;6.938;2023-02-19T15:52:01;9.40;99.90
2955;DHT22;1487;51.470;6.938;2023-02-19T15:54:32;9.40;99.90
2955;DHT22;1487;51.470;6.938;2023-02-19T15:57:02;9.30;99.90
2955;DHT22;1487;51.470;6.938;2023-02-19T15:59:35;9.30;99.90
2955;DHT22;1487;51.470;6.938;2023-02-19T16:02:08;9.30;99.90
2955;DHT22;1487;51.470;6.938;2023-02-19T16:04:37;9.30;99.90
2955;DHT22;1487;51.470;6.938;2023-02-19T16:07:22;9.30;99.90
2955;DHT22;1487;51.470;6.938;2023-02-19T16:10:04;9.20;99.90
2955;DHT22;1487;51.470;6.938;2023-02-19T16:12:31;9.20;99.90
2955;DHT22;1487;51.470;6.938;2023-02-19T16:14:58;9.20;99.90
2955;DHT22;1487;51.470;6.938;2023-02-19T16:17:25;9.20;99.90
2955;DHT22;1487;51.470;6.938;2023-02-19T16:19:54;9.20;99.90
2955;DHT22;1487;51.470;6.938;2023-02-19T16:22:25;9.10;99.90
2955;DHT22;1487;51.470;6.938;2023-02-19T16:24:55;9.10;99.90
2955;DHT22;1487;51.470;6.938;2023-02-19T16:27:28;9.10;99.90
2955;DHT22;1487;51.470;6.938;2023-02-19T16:29:57;9.20;99.90
2955;DHT22;1487;51.470;6.938;2023-02-19T16:32:24;9.10;99.90
2955;DHT22;1487;51.470;6.938;2023-02-19T16:34:51;9.10;99.90
2955;DHT22;1487;51.470;6.938;2023-02-19T16:37:36;9.10;99.90
2955;DHT22;1487;51.470;6.938;2023-02-19T16:43:28;9.00;99.90
2955;DHT22;1487;51.470;6.938;2023-02-19T16:45:56;8.90;99.90
2955;DHT22;1487;51.470;6.938;2023-02-19T16:48:23;8.90;99.90
2955;DHT22;1487;51.470;6.938;2023-02-19T16:50:50;8.80;99.90